ASN logo
Last updated: 22 November 2019
Status:Preliminary
Date:Monday 1 July 2019
Time:23:51
Type:Silhouette image of generic B738 model; specific model in this crash may look slightly different
Boeing 737-85R
Operator:SpiceJet
Registration: VT-SYK
C/n / msn: 30410/1228
First flight: 2002-10-10 (16 years 9 months)
Engines: 2 CFMI CFM56-7B24
Crew:Fatalities: 0 / Occupants:
Passengers:Fatalities: 0 / Occupants:
Total:Fatalities: 0 / Occupants:
Aircraft damage: Substantial
Location:Mumbai-Chhatrapati Shivaji International Airport (BOM) (   India)
Phase: Landing (LDG)
Nature:Domestic Scheduled Passenger
Departure airport:Jaipur International Airport (JAI/VIJP), India
Destination airport:Mumbai-Chhatrapati Shivaji International Airport (BOM/VABB), India
Flightnumber:SG6237
Narrative:
SpiceJet flight SG6237, a Boeing 737-800, suffered a runway excursion after landing on runway 27 at Mumbai, India.
The nose landing gear collapsed and the aircraft sustained damage to the engine nacelles.

Classification:
Runway excursion

Sources:
» thehindu.com
» timesofindia.indiatimes.com

METAR Weather report:
18:00 UTC / 23:30 local time:
VABB 011800Z 15005KT 2100 -TSRA SCT010 SCT018 FEW030CB OVC080 25/25 Q1003 TEMPO 1500 +RA

18:30 UTC / 00:00 local time:
VABB 011830Z 32010KT 1000 R27/1800 TSRA SCT008 BKN015 FEW030CB OVC080 25/25 Q1003 TEMPO 0600 +TSRA


Photos

Add your photo of this accident or aircraft

Video, social media

Map
This map shows the airport of departure and the intended destination of the flight. The line is connecting ADS-B datapoints from Flightradar24.
Distance from Jaipur International Airport to Mumbai-Chhatrapati Shivaji International Airport as the crow flies is 906 km (566 miles).

This information is not presented as the Flight Safety Foundation or the Aviation Safety Network’s opinion as to the cause of the accident. It is preliminary and is based on the facts as they are known at this time.
languages: languages

Share